createdAt,value
2023-04-04T00:02:08.563Z,7.93
2023-04-04T00:04:37.568Z,8.73
2023-04-04T00:07:10.716Z,8.65
2023-04-04T00:09:40.054Z,6.63
2023-04-04T00:12:09.227Z,6.93
2023-04-04T00:14:40.272Z,7.68
2023-04-04T00:17:09.520Z,6.93
2023-04-04T00:19:38.876Z,7.22
2023-04-04T00:22:08.553Z,6.50
2023-04-04T00:24:37.679Z,7.20
2023-04-04T00:27:06.824Z,7.28
2023-04-04T00:29:37.386Z,6.75
2023-04-04T00:32:08.234Z,7.65
2023-04-04T00:34:42.307Z,5.43
2023-04-04T00:37:13.166Z,6.63
2023-04-04T00:42:12.804Z,5.57
2023-04-04T00:44:42.333Z,6.30
2023-04-04T00:47:13.184Z,6.35
2023-04-04T00:49:42.688Z,5.47
2023-04-04T00:52:12.942Z,6.05
2023-04-04T00:54:42.842Z,7.03
2023-04-04T00:57:12.421Z,6.78
2023-04-04T00:59:42.100Z,8.10
2023-04-04T01:02:14.034Z,7.72
2023-04-04T01:04:44.176Z,8.95
2023-04-04T01:07:13.886Z,7.82
2023-04-04T01:09:43.781Z,8.40
2023-04-04T01:12:16.416Z,7.72
2023-04-04T01:14:46.009Z,7.22
2023-04-04T01:17:17.692Z,8.75
2023-04-04T01:19:50.462Z,7.13
2023-04-04T01:22:23.341Z,6.50
2023-04-04T01:24:53.616Z,8.65
2023-04-04T01:27:25.118Z,8.45
2023-04-04T01:30:03.992Z,11.82
2023-04-04T01:32:37.929Z,7.20
2023-04-04T01:35:14.730Z,8.52
2023-04-04T01:37:47.409Z,7.32
2023-04-04T01:40:20.732Z,8.13
2023-04-04T01:42:53.793Z,8.20
2023-04-04T01:45:24.725Z,8.18
2023-04-04T01:47:54.236Z,8.05
2023-04-04T01:52:55.885Z,8.02
2023-04-04T01:55:28.473Z,8.38
2023-04-04T01:57:59.583Z,9.55
2023-04-04T02:00:28.928Z,8.82
2023-04-04T02:02:58.281Z,8.23
2023-04-04T02:05:27.477Z,7.10
2023-04-04T02:07:57.899Z,8.10
2023-04-04T02:10:35.479Z,8.88
2023-04-04T02:13:06.695Z,8.57
2023-04-04T02:15:36.170Z,6.95
2023-04-04T02:18:05.455Z,11.02
2023-04-04T02:20:35.180Z,7.88
2023-04-04T02:23:04.277Z,8.55
2023-04-04T02:25:33.631Z,7.55
2023-04-04T02:28:03.167Z,9.38
2023-04-04T02:30:33.801Z,7.28
2023-04-04T02:33:06.643Z,7.35
2023-04-04T02:35:36.075Z,7.38
2023-04-04T02:38:06.254Z,7.72
2023-04-04T02:40:47.374Z,7.68
2023-04-04T02:43:17.356Z,7.72
2023-04-04T02:45:50.872Z,7.03
2023-04-04T02:48:27.464Z,8.77
2023-04-04T02:51:00.771Z,7.78
2023-04-04T02:53:30.385Z,6.53
2023-04-04T02:56:05.697Z,6.93
2023-04-04T02:58:35.180Z,5.22
2023-04-04T03:01:05.682Z,5.97
2023-04-04T03:03:38.497Z,6.72
2023-04-04T03:06:07.769Z,7.35
2023-04-04T03:08:37.208Z,6.55
2023-04-04T03:11:07.225Z,7.40
2023-04-04T03:13:36.183Z,7.80
2023-04-04T03:16:07.703Z,7.30
2023-04-04T03:18:55.359Z,6.47
2023-04-04T03:21:24.360Z,5.85
2023-04-04T03:23:53.553Z,7.50
2023-04-04T03:26:22.525Z,7.68
2023-04-04T03:28:51.705Z,6.97
2023-04-04T03:31:24.403Z,7.32
2023-04-04T03:33:53.593Z,7.90
2023-04-04T03:36:24.285Z,4.83
2023-04-04T03:38:53.385Z,4.88
2023-04-04T03:41:22.505Z,7.05
2023-04-04T03:43:51.852Z,5.57
2023-04-04T03:46:21.486Z,6.03
2023-04-04T03:48:52.862Z,4.15
2023-04-04T03:51:25.445Z,5.07
2023-04-04T03:53:54.383Z,5.85
2023-04-04T03:56:23.473Z,5.60
2023-04-04T03:58:52.610Z,6.25
2023-04-04T04:01:25.570Z,6.32
2023-04-04T04:03:56.117Z,6.07
2023-04-04T04:06:25.172Z,5.88
2023-04-04T04:08:54.386Z,6.07
2023-04-04T04:11:23.683Z,6.43
2023-04-04T04:13:53.566Z,6.53
2023-04-04T04:16:23.280Z,6.70
2023-04-04T04:18:53.985Z,5.80
2023-04-04T04:21:36.307Z,5.80
2023-04-04T04:24:05.946Z,6.93
2023-04-04T04:26:35.994Z,5.32
2023-04-04T04:29:07.739Z,5.25
2023-04-04T04:31:36.989Z,5.72
2023-04-04T04:34:08.143Z,6.88
2023-04-04T04:36:39.573Z,7.50
2023-04-04T04:39:27.390Z,5.45
2023-04-04T04:42:08.286Z,6.60
2023-04-04T04:44:41.383Z,6.38
2023-04-04T04:47:10.625Z,6.45
2023-04-04T04:49:39.852Z,6.35
2023-04-04T04:52:13.683Z,6.45
2023-04-04T04:54:45.863Z,5.97
2023-04-04T04:57:16.108Z,6.72
2023-04-04T04:59:47.220Z,7.13
2023-04-04T05:02:17.810Z,8.77
2023-04-04T05:04:48.965Z,6.97
2023-04-04T05:07:20.577Z,7.97
2023-04-04T05:12:22.738Z,6.55
2023-04-04T05:17:24.015Z,8.32
2023-04-04T05:19:56.847Z,8.02
2023-04-04T05:22:28.708Z,7.57
2023-04-04T05:24:59.030Z,7.60
2023-04-04T05:27:28.832Z,6.65
2023-04-04T05:30:02.249Z,5.97
2023-04-04T05:32:41.997Z,8.27
2023-04-04T05:35:20.063Z,8.30
2023-04-04T05:37:51.739Z,7.00
2023-04-04T05:40:21.590Z,8.43
2023-04-04T05:42:57.796Z,7.50
2023-04-04T05:45:33.432Z,9.93
2023-04-04T05:48:04.082Z,8.70
2023-04-04T05:50:38.897Z,8.52
2023-04-04T05:53:10.478Z,7.88
2023-04-04T05:55:40.081Z,7.35
2023-04-04T05:58:11.791Z,6.45
2023-04-04T06:00:50.855Z,8.63
2023-04-04T06:03:22.269Z,7.60
2023-04-04T06:05:53.517Z,6.60
2023-04-04T06:08:24.950Z,6.10
2023-04-04T06:10:55.310Z,6.55
2023-04-04T06:13:25.514Z,7.78
2023-04-04T06:16:00.828Z,6.47
2023-04-04T06:18:30.689Z,6.63
2023-04-04T06:21:00.477Z,8.48
2023-04-04T06:23:33.350Z,8.70
2023-04-04T06:26:02.886Z,7.78
2023-04-04T06:28:32.240Z,7.57
2023-04-04T06:31:02.038Z,7.68
2023-04-04T06:33:34.561Z,9.13
2023-04-04T06:36:04.012Z,7.05
2023-04-04T06:38:34.575Z,7.03
2023-04-04T06:41:07.882Z,7.13
2023-04-04T06:43:36.938Z,7.15
2023-04-04T06:46:06.728Z,6.53
2023-04-04T06:48:35.854Z,7.57
2023-04-04T06:51:07.473Z,7.90
2023-04-04T06:53:40.234Z,7.95
2023-04-04T06:56:11.292Z,7.72
2023-04-04T06:58:40.553Z,6.97
2023-04-04T07:01:10.290Z,8.02
2023-04-04T07:03:39.455Z,9.70
2023-04-04T07:06:08.489Z,8.38
2023-04-04T07:08:39.009Z,8.02
2023-04-04T07:11:08.511Z,8.13
2023-04-04T07:13:37.844Z,8.35
2023-04-04T07:16:07.438Z,9.30
2023-04-04T07:18:37.028Z,8.82
2023-04-04T07:21:06.432Z,8.88
2023-04-04T07:23:36.384Z,7.43
2023-04-04T07:26:07.048Z,7.90
2023-04-04T07:28:37.089Z,8.35
2023-04-04T07:31:06.793Z,9.88
2023-04-04T07:33:36.311Z,9.45
2023-04-04T07:36:05.856Z,6.80
2023-04-04T07:38:35.291Z,7.82
2023-04-04T07:41:04.504Z,6.97
2023-04-04T07:43:35.172Z,7.68
2023-04-04T07:46:04.528Z,7.75
2023-04-04T07:48:34.013Z,8.80
2023-04-04T07:51:05.334Z,8.30
2023-04-04T07:53:34.788Z,6.47
2023-04-04T07:56:06.589Z,20.40
2023-04-04T07:59:20.668Z,10.80
2023-04-04T08:01:51.927Z,7.93
2023-04-04T08:04:21.280Z,9.15
2023-04-04T08:06:50.754Z,9.40
2023-04-04T08:09:19.811Z,7.63
2023-04-04T08:11:51.588Z,8.45
2023-04-04T08:14:21.422Z,8.85
2023-04-04T08:16:52.758Z,9.25
2023-04-04T08:19:22.512Z,8.52
2023-04-04T08:21:51.810Z,8.85
2023-04-04T08:24:22.431Z,8.45
2023-04-04T08:27:01.839Z,8.38
2023-04-04T08:29:34.505Z,9.30
2023-04-04T08:32:05.459Z,8.77
2023-04-04T08:34:34.765Z,7.72
2023-04-04T08:37:04.758Z,10.18
2023-04-04T08:39:34.491Z,7.93
2023-04-04T08:42:07.601Z,9.30
2023-04-04T08:44:37.199Z,7.63
2023-04-04T08:47:09.916Z,9.65
2023-04-04T08:49:40.512Z,9.48
2023-04-04T08:52:10.904Z,9.38
2023-04-04T08:54:41.881Z,9.35
2023-04-04T08:57:11.100Z,7.95
2023-04-04T08:59:41.168Z,8.88
2023-04-04T09:02:19.985Z,8.65
2023-04-04T09:05:05.648Z,9.05
2023-04-04T09:07:39.406Z,8.18
2023-04-04T09:10:11.264Z,9.93
2023-04-04T09:12:43.819Z,8.13
2023-04-04T09:15:13.747Z,7.22
2023-04-04T09:17:44.785Z,8.98
2023-04-04T09:20:32.736Z,8.30
2023-04-04T09:23:02.237Z,10.82
2023-04-04T09:25:31.731Z,7.93
2023-04-04T09:28:03.100Z,8.65
2023-04-04T09:30:32.373Z,9.65
2023-04-04T09:33:07.676Z,8.55
2023-04-04T09:35:38.447Z,9.07
2023-04-04T09:38:08.249Z,8.45
2023-04-04T09:40:38.278Z,7.38
2023-04-04T09:43:09.267Z,8.65
2023-04-04T09:45:41.030Z,8.60
2023-04-04T09:48:11.798Z,7.68
2023-04-04T09:50:47.764Z,8.95
2023-04-04T09:53:20.098Z,7.15
2023-04-04T09:55:53.540Z,8.27
2023-04-04T09:58:27.442Z,8.30
2023-04-04T10:00:57.409Z,8.15
2023-04-04T10:03:28.709Z,8.27
2023-04-04T10:05:59.058Z,7.32
2023-04-04T10:08:29.371Z,8.27
2023-04-04T10:11:10.505Z,8.05
2023-04-04T10:16:12.412Z,6.50
2023-04-04T10:18:43.415Z,7.95
2023-04-04T10:21:15.805Z,7.75
2023-04-04T10:23:47.548Z,7.80
2023-04-04T10:26:17.098Z,6.50
2023-04-04T10:28:46.540Z,7.25
2023-04-04T10:31:18.553Z,7.75
2023-04-04T10:36:22.809Z,6.53
2023-04-04T10:38:55.977Z,6.78
2023-04-04T10:41:25.661Z,6.53
2023-04-04T10:43:56.808Z,5.70
2023-04-04T10:46:31.023Z,5.80
2023-04-04T10:49:01.908Z,7.07
2023-04-04T10:51:39.448Z,6.75
2023-04-04T10:54:14.949Z,6.30
2023-04-04T10:56:44.667Z,7.75
2023-04-04T10:59:15.035Z,7.35
2023-04-04T11:01:51.633Z,6.53
2023-04-04T11:04:21.953Z,6.65
2023-04-04T11:07:21.558Z,7.38
2023-04-04T11:09:53.265Z,6.68
2023-04-04T11:12:24.423Z,5.57
2023-04-04T11:14:58.249Z,6.47
2023-04-04T11:17:51.810Z,6.40
2023-04-04T11:20:22.568Z,5.88
2023-04-04T11:22:52.699Z,6.50
2023-04-04T11:25:33.450Z,6.30
2023-04-04T11:28:06.244Z,7.10
2023-04-04T11:30:44.175Z,6.32
2023-04-04T11:33:15.362Z,6.57
2023-04-04T11:35:48.925Z,7.90
2023-04-04T11:38:18.213Z,7.35
2023-04-04T11:40:56.536Z,6.28
2023-04-04T11:43:27.734Z,6.03
2023-04-04T11:46:08.116Z,5.22
2023-04-04T11:48:37.477Z,5.20
2023-04-04T11:51:07.167Z,6.38
2023-04-04T11:53:36.533Z,6.68
2023-04-04T11:56:07.496Z,5.75
2023-04-04T11:58:37.894Z,6.80
2023-04-04T12:01:06.877Z,6.40
2023-04-04T12:03:37.107Z,5.25
2023-04-04T12:06:06.837Z,5.60
2023-04-04T12:08:35.968Z,6.25
2023-04-04T12:11:10.664Z,6.20
2023-04-04T12:13:44.737Z,5.47
2023-04-04T12:16:13.828Z,6.28
2023-04-04T12:18:46.710Z,7.43
2023-04-04T12:21:16.610Z,5.97
2023-04-04T12:23:45.755Z,5.57
2023-04-04T12:26:16.752Z,6.25
2023-04-04T12:28:51.296Z,5.65
2023-04-04T12:31:20.828Z,7.28
2023-04-04T12:33:51.801Z,7.18
2023-04-04T12:36:21.421Z,6.50
2023-04-04T12:39:00.968Z,5.63
2023-04-04T12:41:32.771Z,8.57
2023-04-04T12:44:03.368Z,6.90
2023-04-04T12:46:42.136Z,6.65
2023-04-04T12:49:13.174Z,7.45
2023-04-04T12:51:43.250Z,6.40
2023-04-04T12:54:26.077Z,6.95
2023-04-04T12:56:58.717Z,7.22
2023-04-04T12:59:30.989Z,8.25
2023-04-04T13:02:02.805Z,8.93
2023-04-04T13:04:33.529Z,8.73
2023-04-04T13:07:03.408Z,8.65
2023-04-04T13:09:33.514Z,8.10
2023-04-04T13:12:05.453Z,6.18
2023-04-04T13:14:49.633Z,7.38
2023-04-04T13:17:19.565Z,8.07
2023-04-04T13:19:49.358Z,7.80
2023-04-04T13:22:19.031Z,8.73
2023-04-04T13:24:48.604Z,8.93
2023-04-04T13:27:19.728Z,8.73
2023-04-04T13:29:49.471Z,9.77
2023-04-04T13:32:19.068Z,8.52
2023-04-04T13:34:49.411Z,8.02
2023-04-04T13:37:20.687Z,9.15
2023-04-04T13:39:53.237Z,7.13
2023-04-04T13:42:29.601Z,8.18
2023-04-04T13:44:59.245Z,7.85
2023-04-04T13:47:30.885Z,7.38
2023-04-04T13:50:02.072Z,7.07
2023-04-04T13:52:31.800Z,8.73
2023-04-04T13:55:02.370Z,7.82
2023-04-04T13:57:33.188Z,8.60
2023-04-04T14:00:04.991Z,8.85
2023-04-04T14:02:39.618Z,8.55
2023-04-04T14:05:09.699Z,7.30
2023-04-04T14:07:38.993Z,7.75
2023-04-04T14:10:11.341Z,8.80
2023-04-04T14:12:42.346Z,8.27
2023-04-04T14:15:12.316Z,7.20
2023-04-04T14:17:41.705Z,7.40
2023-04-04T14:20:11.182Z,8.80
2023-04-04T14:22:40.753Z,9.00
2023-04-04T14:25:10.478Z,9.95
2023-04-04T14:27:39.630Z,11.82
2023-04-04T14:30:10.982Z,9.15
2023-04-04T14:32:40.165Z,9.07
2023-04-04T14:35:10.158Z,8.07
2023-04-04T14:37:39.792Z,10.70
2023-04-04T14:40:09.393Z,6.53
2023-04-04T14:42:38.490Z,8.30
2023-04-04T14:45:08.996Z,8.90
2023-04-04T14:47:41.132Z,9.30
2023-04-04T14:50:11.597Z,7.82
2023-04-04T14:52:40.952Z,8.05
2023-04-04T14:55:11.922Z,7.72
2023-04-04T14:58:00.582Z,13.13
2023-04-04T15:00:31.548Z,7.50
2023-04-04T15:03:04.275Z,10.48
2023-04-04T15:05:35.004Z,8.82
2023-04-04T15:08:04.183Z,8.90
2023-04-04T15:10:33.476Z,8.32
2023-04-04T15:13:02.686Z,9.20
2023-04-04T15:15:32.681Z,10.18
2023-04-04T15:18:04.951Z,9.00
2023-04-04T15:20:34.148Z,8.82
2023-04-04T15:23:03.563Z,7.78
2023-04-04T15:25:33.146Z,9.63
2023-04-04T15:28:02.660Z,9.13
2023-04-04T15:30:33.445Z,8.98
2023-04-04T15:33:03.010Z,9.18
2023-04-04T15:35:34.276Z,8.38
2023-04-04T15:38:03.561Z,8.65
2023-04-04T15:40:32.804Z,8.50
2023-04-04T15:43:02.052Z,10.13
2023-04-04T15:45:32.229Z,8.13
2023-04-04T15:48:01.520Z,9.80
2023-04-04T15:50:30.840Z,9.20
2023-04-04T15:53:01.405Z,8.38
2023-04-04T15:55:31.209Z,7.47
2023-04-04T15:58:00.667Z,9.38
2023-04-04T16:00:34.258Z,7.85
2023-04-04T16:03:03.950Z,9.00
2023-04-04T16:05:33.246Z,8.13
2023-04-04T16:08:03.741Z,8.77
2023-04-04T16:10:33.988Z,9.10
2023-04-04T16:13:03.049Z,8.52
2023-04-04T16:15:32.754Z,7.05
2023-04-04T16:18:04.134Z,9.65
2023-04-04T16:20:33.411Z,8.98
2023-04-04T16:23:04.156Z,17.77
2023-04-04T16:25:33.234Z,16.17
2023-04-04T16:28:02.423Z,12.80
2023-04-04T16:30:32.183Z,11.90
2023-04-04T16:33:01.828Z,9.10
2023-04-04T16:35:33.400Z,7.35
2023-04-04T16:38:04.198Z,8.88
2023-04-04T16:40:33.564Z,7.70
2023-04-04T16:43:03.024Z,9.82
2023-04-04T16:45:33.102Z,8.90
2023-04-04T16:48:02.632Z,10.18
2023-04-04T16:50:31.925Z,10.23
2023-04-04T16:53:01.470Z,10.07
2023-04-04T16:55:32.174Z,8.95
2023-04-04T16:58:01.499Z,8.80
2023-04-04T17:00:33.089Z,7.63
2023-04-04T17:03:03.016Z,8.18
2023-04-04T17:05:32.522Z,6.75
2023-04-04T17:08:01.662Z,7.63
2023-04-04T17:10:32.526Z,8.63
2023-04-04T17:13:02.310Z,8.38
2023-04-04T17:15:31.729Z,8.02
2023-04-04T17:18:01.293Z,9.55
2023-04-04T17:20:34.588Z,7.50
2023-04-04T17:23:03.947Z,9.05
2023-04-04T17:25:34.710Z,8.13
2023-04-04T17:28:04.900Z,7.77
2023-04-04T17:30:34.221Z,8.63
2023-04-04T17:33:03.950Z,8.20
2023-04-04T17:35:32.948Z,7.80
2023-04-04T17:38:01.998Z,8.35
2023-04-04T17:40:31.227Z,7.15
2023-04-04T17:43:07.397Z,6.95
2023-04-04T17:45:37.536Z,8.50
2023-04-04T17:48:07.909Z,6.72
2023-04-04T17:50:37.392Z,7.43
2023-04-04T17:53:07.465Z,6.20
2023-04-04T17:55:37.308Z,8.75
2023-04-04T17:58:08.078Z,8.18
2023-04-04T18:00:37.651Z,7.22
2023-04-04T18:03:06.987Z,8.73
2023-04-04T18:05:36.334Z,8.88
2023-04-04T18:08:05.956Z,8.30
2023-04-04T18:10:35.217Z,9.82
2023-04-04T18:13:04.351Z,8.77
2023-04-04T18:15:35.421Z,9.38
2023-04-04T18:18:06.394Z,11.88
2023-04-04T18:20:37.099Z,11.00
2023-04-04T18:23:06.304Z,8.95
2023-04-04T18:25:35.972Z,8.02
2023-04-04T18:28:05.206Z,9.40
2023-04-04T18:30:37.485Z,11.80
2023-04-04T18:33:08.041Z,11.70
2023-04-04T18:35:37.667Z,11.13
2023-04-04T18:38:07.239Z,9.73
2023-04-04T18:40:36.450Z,9.98
2023-04-04T18:43:05.767Z,8.45
2023-04-04T18:45:40.454Z,9.18
2023-04-04T18:48:11.839Z,10.23
2023-04-04T18:50:42.060Z,8.17
2023-04-04T18:53:11.835Z,9.65
2023-04-04T18:55:41.162Z,9.23
2023-04-04T18:58:10.264Z,12.00
2023-04-04T19:00:41.749Z,9.68
2023-04-04T19:03:13.096Z,9.38
2023-04-04T19:05:43.091Z,9.05
2023-04-04T19:08:14.016Z,10.63
2023-04-04T19:10:45.903Z,10.45
2023-04-04T19:15:46.960Z,8.73
2023-04-04T19:18:16.265Z,8.35
2023-04-04T19:20:45.452Z,8.25
2023-04-04T19:23:14.595Z,9.35
2023-04-04T19:25:43.939Z,10.25
2023-04-04T19:28:13.118Z,10.45
2023-04-04T19:30:43.975Z,12.52
2023-04-04T19:33:15.185Z,9.20
2023-04-04T19:35:53.465Z,11.40
2023-04-04T19:38:24.735Z,11.55
2023-04-04T19:40:54.713Z,9.60
2023-04-04T19:43:24.776Z,9.52
2023-04-04T19:45:54.622Z,10.57
2023-04-04T19:48:42.523Z,11.18
2023-04-04T19:51:13.132Z,14.43
2023-04-04T19:53:47.986Z,12.27
2023-04-04T19:56:18.031Z,10.55
2023-04-04T19:58:48.524Z,11.55
2023-04-04T20:01:21.408Z,12.37
2023-04-04T20:03:52.003Z,11.50
2023-04-04T20:06:24.699Z,10.68
2023-04-04T20:08:54.314Z,11.90
2023-04-04T20:11:25.699Z,10.73
2023-04-04T20:13:54.693Z,12.13
2023-04-04T20:16:24.464Z,12.95
2023-04-04T20:18:55.349Z,13.13
2023-04-04T20:21:26.608Z,12.88
2023-04-04T20:23:57.768Z,13.60
2023-04-04T20:26:43.818Z,13.40
2023-04-04T20:29:13.995Z,12.18
2023-04-04T20:31:44.387Z,12.82
2023-04-04T20:34:32.999Z,15.48
2023-04-04T20:37:05.004Z,14.05
2023-04-04T20:39:47.719Z,13.32
2023-04-04T20:42:47.939Z,12.80
2023-04-04T20:45:44.846Z,14.00
2023-04-04T20:48:28.787Z,12.20
2023-04-04T20:50:59.188Z,14.70
2023-04-04T20:53:29.087Z,14.00
2023-04-04T20:55:58.325Z,14.88
2023-04-04T20:58:31.326Z,12.52
2023-04-04T21:01:01.042Z,11.75
2023-04-04T21:03:39.179Z,13.20
2023-04-04T21:06:13.763Z,13.35
2023-04-04T21:08:43.666Z,12.30
2023-04-04T21:11:13.442Z,13.45
2023-04-04T21:13:43.415Z,13.35
2023-04-04T21:16:13.604Z,12.23
2023-04-04T21:18:43.629Z,13.85
2023-04-04T21:21:16.818Z,11.88
2023-04-04T21:23:55.837Z,13.07
2023-04-04T21:26:29.850Z,13.15
2023-04-04T21:28:59.898Z,14.27
2023-04-04T21:31:36.144Z,16.02
2023-04-04T21:34:12.317Z,13.32
2023-04-04T21:36:43.038Z,12.48
2023-04-04T21:39:13.490Z,11.90
2023-04-04T21:41:43.387Z,11.48
2023-04-04T21:44:12.823Z,12.70
2023-04-04T21:46:44.582Z,12.40
2023-04-04T21:49:14.571Z,13.27
2023-04-04T21:51:44.974Z,11.43
2023-04-04T21:54:14.563Z,10.38
2023-04-04T21:56:43.786Z,10.43
2023-04-04T21:59:13.196Z,11.57
2023-04-04T22:01:42.714Z,13.40
2023-04-04T22:04:11.932Z,11.95
2023-04-04T22:06:41.310Z,13.15
2023-04-04T22:09:13.062Z,11.75
2023-04-04T22:11:45.680Z,11.52
2023-04-04T22:14:18.222Z,11.00
2023-04-04T22:16:50.138Z,10.90
2023-04-04T22:19:23.598Z,10.93
2023-04-04T22:21:54.458Z,12.45
2023-04-04T22:24:25.874Z,12.90
2023-04-04T22:26:57.502Z,11.98
2023-04-04T22:29:27.257Z,13.65
2023-04-04T22:31:57.222Z,11.68
2023-04-04T22:34:27.940Z,12.23
2023-04-04T22:36:59.423Z,13.60
2023-04-04T22:39:31.051Z,12.35
2023-04-04T22:42:00.167Z,13.57
2023-04-04T22:44:29.256Z,12.73
2023-04-04T22:46:58.994Z,11.95
2023-04-04T22:49:28.096Z,12.00
2023-04-04T22:51:57.842Z,12.55
2023-04-04T22:54:27.017Z,13.70
2023-04-04T22:56:57.739Z,15.00
2023-04-04T22:59:26.881Z,12.73
2023-04-04T23:01:56.925Z,13.05
2023-04-04T23:04:27.140Z,10.68
2023-04-04T23:06:56.345Z,11.07
2023-04-04T23:09:25.945Z,10.60
2023-04-04T23:11:55.077Z,11.38
2023-04-04T23:14:30.687Z,11.60
2023-04-04T23:16:59.920Z,11.77
2023-04-04T23:19:29.096Z,10.73
2023-04-04T23:21:58.465Z,9.82
2023-04-04T23:24:28.512Z,10.48
2023-04-04T23:26:57.752Z,10.57
2023-04-04T23:29:28.445Z,9.88
2023-04-04T23:31:57.778Z,9.35
2023-04-04T23:34:27.097Z,9.88
2023-04-04T23:36:56.329Z,8.75
2023-04-04T23:39:25.386Z,9.15
2023-04-04T23:41:54.629Z,7.72
2023-04-04T23:44:23.982Z,9.13
2023-04-04T23:46:54.656Z,9.65
2023-04-04T23:49:23.934Z,10.15
2023-04-04T23:51:53.219Z,9.95
2023-04-04T23:54:23.467Z,10.80
2023-04-04T23:56:52.697Z,9.43
2023-04-04T23:59:24.431Z,8.85
